createdAt,value
2019-06-01T00:00:11.085Z,9.50
2019-06-01T00:02:31.607Z,9.93
2019-06-01T00:04:59.146Z,11.10
2019-06-01T00:07:26.179Z,19.87
2019-06-01T00:09:54.291Z,9.57
2019-06-01T00:12:21.265Z,10.20
2019-06-01T00:14:50.020Z,8.70
2019-06-01T00:17:17.367Z,9.57
2019-06-01T00:19:46.253Z,13.13
2019-06-01T00:22:14.382Z,10.60
2019-06-01T00:24:41.832Z,12.27
2019-06-01T00:27:09.269Z,12.00
2019-06-01T00:29:37.013Z,12.10
2019-06-01T00:32:04.081Z,11.00
2019-06-01T00:34:32.153Z,11.37
2019-06-01T00:37:00.266Z,11.10
2019-06-01T00:39:27.413Z,12.00
2019-06-01T00:41:55.092Z,11.80
2019-06-01T00:44:22.892Z,11.63
2019-06-01T00:46:50.779Z,10.67
2019-06-01T00:49:18.890Z,10.17
2019-06-01T00:51:47.012Z,10.93
2019-06-01T00:54:14.886Z,10.33
2019-06-01T00:56:43.384Z,10.67
2019-06-01T00:59:11.630Z,13.87
2019-06-01T01:01:38.988Z,11.63
2019-06-01T01:04:06.248Z,10.37
2019-06-01T01:06:33.367Z,10.73
2019-06-01T01:09:00.723Z,10.80
2019-06-01T01:11:28.429Z,11.13
2019-06-01T01:13:56.073Z,11.30
2019-06-01T01:16:24.485Z,11.30
2019-06-01T01:18:52.220Z,11.53
2019-06-01T01:21:20.187Z,16.20
2019-06-01T01:23:48.218Z,13.30
2019-06-01T01:26:15.605Z,13.07
2019-06-01T01:28:43.154Z,12.17
2019-06-01T01:31:14.225Z,12.07
2019-06-01T01:33:41.430Z,15.30
2019-06-01T01:36:08.873Z,14.37
2019-06-01T01:38:36.373Z,12.17
2019-06-01T01:41:03.718Z,15.47
2019-06-01T01:43:31.246Z,12.73
2019-06-01T01:45:59.010Z,13.37
2019-06-01T01:48:26.769Z,12.00
2019-06-01T01:50:54.375Z,12.80
2019-06-01T01:53:21.894Z,12.43
2019-06-01T01:55:50.907Z,14.00
2019-06-01T01:58:19.673Z,14.23
2019-06-01T02:00:47.227Z,12.97
2019-06-01T02:03:15.269Z,13.43
2019-06-01T02:05:42.682Z,15.83
2019-06-01T02:08:10.593Z,14.73
2019-06-01T02:10:37.797Z,15.73
2019-06-01T02:13:06.302Z,15.80
2019-06-01T02:15:34.480Z,15.43
2019-06-01T02:18:02.875Z,15.67
2019-06-01T02:20:30.528Z,16.33
2019-06-01T02:22:58.938Z,15.03
2019-06-01T02:25:26.466Z,17.20
2019-06-01T02:27:55.043Z,14.73
2019-06-01T02:30:22.911Z,16.10
2019-06-01T02:32:53.650Z,17.73
2019-06-01T02:35:22.258Z,15.70
2019-06-01T02:37:54.721Z,15.33
2019-06-01T02:40:28.609Z,13.77
2019-06-01T02:42:59.287Z,15.93
2019-06-01T02:45:28.834Z,14.83
2019-06-01T02:47:57.508Z,18.43
2019-06-01T02:50:24.769Z,16.93
2019-06-01T02:52:52.571Z,15.33
2019-06-01T02:55:19.647Z,17.20
2019-06-01T02:57:47.166Z,16.60
2019-06-01T03:00:16.793Z,15.30
2019-06-01T03:02:44.909Z,16.47
2019-06-01T03:05:12.692Z,16.80
2019-06-01T03:07:41.759Z,16.73
2019-06-01T03:10:10.036Z,16.30
2019-06-01T03:12:44.602Z,19.17
2019-06-01T03:15:12.476Z,18.40
2019-06-01T03:17:44.682Z,16.87
2019-06-01T03:20:13.673Z,16.77
2019-06-01T03:22:42.312Z,17.27
2019-06-01T03:25:12.255Z,19.70
2019-06-01T03:27:42.910Z,16.83
2019-06-01T03:30:14.798Z,15.40
2019-06-01T03:32:40.980Z,17.33
2019-06-01T03:35:08.837Z,18.13
2019-06-01T03:37:36.653Z,23.50
2019-06-01T03:40:06.744Z,19.57
2019-06-01T03:42:34.756Z,18.87
2019-06-01T03:45:03.391Z,20.27
2019-06-01T03:47:31.247Z,24.07
2019-06-01T03:49:58.959Z,20.23
2019-06-01T03:52:26.717Z,21.43
2019-06-01T03:54:53.746Z,22.93
2019-06-01T03:57:21.971Z,21.03
2019-06-01T03:59:50.377Z,26.80
2019-06-01T04:02:32.261Z,24.10
2019-06-01T04:04:47.404Z,27.33
2019-06-01T04:07:14.793Z,30.47
2019-06-01T04:09:41.790Z,31.13
2019-06-01T04:12:10.279Z,31.70
2019-06-01T04:14:37.592Z,26.00
2019-06-01T04:17:06.101Z,26.47
2019-06-01T04:19:33.704Z,27.03
2019-06-01T04:22:01.977Z,27.40
2019-06-01T04:24:29.908Z,24.77
2019-06-01T04:26:57.247Z,27.50
2019-06-01T04:29:24.961Z,33.83
2019-06-01T04:31:52.659Z,25.17
2019-06-01T04:34:21.010Z,27.90
2019-06-01T04:36:48.143Z,21.80
2019-06-01T04:39:16.667Z,24.80
2019-06-01T04:41:44.187Z,21.73
2019-06-01T04:44:12.220Z,22.57
2019-06-01T04:46:39.730Z,21.50
2019-06-01T04:49:08.563Z,23.20
2019-06-01T04:51:36.593Z,22.40
2019-06-01T04:54:04.837Z,24.70
2019-06-01T04:56:32.843Z,24.30
2019-06-01T04:59:00.893Z,24.60
2019-06-01T05:01:29.036Z,21.80
2019-06-01T05:03:56.512Z,22.27
2019-06-01T05:06:24.733Z,22.13
2019-06-01T05:08:52.696Z,22.07
2019-06-01T05:11:20.525Z,21.20
2019-06-01T05:13:47.621Z,21.93
2019-06-01T05:16:16.456Z,21.07
2019-06-01T05:18:45.213Z,22.47
2019-06-01T05:21:15.182Z,24.17
2019-06-01T05:23:43.366Z,21.20
2019-06-01T05:26:10.981Z,20.50
2019-06-01T05:28:38.982Z,19.47
2019-06-01T05:31:09.646Z,20.27
2019-06-01T05:33:37.770Z,23.47
2019-06-01T05:36:05.371Z,19.70
2019-06-01T05:38:33.926Z,20.23
2019-06-01T05:41:02.091Z,17.80
2019-06-01T05:43:29.460Z,22.40
2019-06-01T05:45:57.120Z,18.70
2019-06-01T05:48:29.818Z,24.13
2019-06-01T05:50:54.335Z,18.10
2019-06-01T05:53:23.090Z,18.90
2019-06-01T05:55:50.681Z,17.83
2019-06-01T05:58:19.501Z,18.73
2019-06-01T06:00:47.081Z,22.47
2019-06-01T06:03:20.389Z,16.83
2019-06-01T06:05:44.678Z,17.07
2019-06-01T06:08:14.324Z,15.67
2019-06-01T06:10:42.020Z,17.10
2019-06-01T06:13:11.002Z,14.47
2019-06-01T06:15:38.133Z,16.70
2019-06-01T06:18:05.541Z,14.33
2019-06-01T06:20:32.599Z,15.73
2019-06-01T06:22:59.851Z,16.63
2019-06-01T06:25:31.580Z,17.07
2019-06-01T06:27:59.530Z,14.23
2019-06-01T06:30:27.440Z,20.27
2019-06-01T06:32:55.190Z,15.03
2019-06-01T06:35:23.686Z,13.07
2019-06-01T06:37:51.379Z,16.47
2019-06-01T06:40:20.022Z,14.17
2019-06-01T06:42:47.639Z,14.90
2019-06-01T06:45:16.530Z,14.90
2019-06-01T06:47:44.184Z,15.47
2019-06-01T06:50:17.506Z,14.77
2019-06-01T06:52:45.320Z,14.03
2019-06-01T06:55:12.368Z,14.17
2019-06-01T06:57:40.145Z,12.70
2019-06-01T07:00:07.627Z,14.70
2019-06-01T07:02:35.684Z,13.20
2019-06-01T07:05:03.399Z,14.13
2019-06-01T07:07:30.924Z,11.50
2019-06-01T07:09:58.367Z,10.20
2019-06-01T07:12:27.504Z,10.13
2019-06-01T07:15:09.040Z,9.30
2019-06-01T07:17:37.126Z,11.20
2019-06-01T07:20:04.970Z,10.57
2019-06-01T07:22:32.425Z,8.93
2019-06-01T07:24:59.513Z,8.60
2019-06-01T07:27:28.259Z,8.30
2019-06-01T07:29:56.214Z,8.40
2019-06-01T07:32:24.644Z,11.13
2019-06-01T07:34:52.586Z,8.70
2019-06-01T07:37:20.705Z,10.67
2019-06-01T07:39:47.864Z,7.90
2019-06-01T07:42:14.955Z,8.30
2019-06-01T07:44:42.433Z,11.57
2019-06-01T07:47:10.160Z,11.70
2019-06-01T07:49:37.525Z,7.13
2019-06-01T07:52:12.605Z,6.93
2019-06-01T07:54:33.587Z,8.47
2019-06-01T07:57:01.326Z,11.17
2019-06-01T07:59:30.446Z,6.83
2019-06-01T08:01:57.755Z,8.60
2019-06-01T08:04:26.706Z,9.40
2019-06-01T08:06:54.659Z,10.90
2019-06-01T08:09:24.015Z,7.53
2019-06-01T08:11:52.123Z,7.30
2019-06-01T08:14:19.881Z,10.30
2019-06-01T08:16:47.294Z,7.03
2019-06-01T08:19:14.711Z,7.63
2019-06-01T08:21:42.225Z,8.07
2019-06-01T08:24:10.048Z,7.00
2019-06-01T08:26:37.458Z,10.53
2019-06-01T08:29:05.124Z,10.73
2019-06-01T08:31:33.695Z,6.57
2019-06-01T08:34:01.083Z,7.07
2019-06-01T08:36:29.479Z,6.73
2019-06-01T08:38:56.559Z,15.40
2019-06-01T08:41:23.620Z,9.03
2019-06-01T08:43:51.605Z,13.03
2019-06-01T08:46:18.656Z,6.90
2019-06-01T08:48:46.076Z,7.20
2019-06-01T08:51:13.193Z,7.17
2019-06-01T08:53:40.274Z,9.13
2019-06-01T08:56:07.351Z,10.70
2019-06-01T08:58:34.688Z,6.70
2019-06-01T09:01:02.164Z,7.10
2019-06-01T09:03:30.049Z,6.90
2019-06-01T09:06:08.521Z,6.87
2019-06-01T09:08:37.024Z,5.50
2019-06-01T09:11:09.222Z,6.90
2019-06-01T09:13:36.749Z,6.63
2019-06-01T09:16:04.223Z,7.50
2019-06-01T09:18:31.654Z,6.40
2019-06-01T09:20:59.491Z,7.27
2019-06-01T09:23:27.631Z,6.03
2019-06-01T09:25:55.573Z,8.47
2019-06-01T09:28:24.114Z,6.43
2019-06-01T09:30:52.023Z,7.50
2019-06-01T09:33:19.067Z,13.20
2019-06-01T09:35:55.962Z,10.17
2019-06-01T09:38:17.532Z,5.63
2019-06-01T09:40:45.774Z,7.47
2019-06-01T09:43:12.958Z,8.27
2019-06-01T09:45:40.091Z,8.30
2019-06-01T09:48:07.473Z,6.67
2019-06-01T09:50:35.484Z,9.07
2019-06-01T09:53:04.521Z,7.00
2019-06-01T09:55:34.381Z,8.20
2019-06-01T09:58:02.238Z,7.63
2019-06-01T10:00:30.356Z,7.80
2019-06-01T10:02:58.147Z,7.40
2019-06-01T10:05:25.528Z,6.20
2019-06-01T10:07:52.676Z,8.03
2019-06-01T10:10:20.372Z,7.20
2019-06-01T10:12:47.427Z,5.50
2019-06-01T10:15:15.398Z,6.27
2019-06-01T10:17:43.177Z,6.13
2019-06-01T10:20:11.102Z,6.87
2019-06-01T10:22:39.662Z,5.73
2019-06-01T10:25:07.886Z,7.80
2019-06-01T10:27:35.038Z,6.07
2019-06-01T10:30:02.189Z,5.87
2019-06-01T10:32:29.860Z,5.60
2019-06-01T10:34:57.679Z,6.97
2019-06-01T10:37:25.920Z,4.67
2019-06-01T10:39:53.691Z,7.33
2019-06-01T10:42:20.820Z,7.47
2019-06-01T10:44:47.888Z,7.20
2019-06-01T10:47:15.231Z,6.17
2019-06-01T10:49:42.311Z,5.30
2019-06-01T10:52:09.771Z,5.83
2019-06-01T10:54:38.195Z,6.87
2019-06-01T10:57:06.511Z,7.90
2019-06-01T10:59:34.273Z,5.40
2019-06-01T11:02:02.168Z,7.60
2019-06-01T11:04:29.522Z,4.43
2019-06-01T11:06:56.945Z,5.63
2019-06-01T11:09:25.504Z,6.73
2019-06-01T11:11:52.952Z,6.97
2019-06-01T11:14:20.287Z,8.43
2019-06-01T11:16:54.914Z,6.00
2019-06-01T11:19:17.015Z,4.83
2019-06-01T11:21:44.153Z,10.43
2019-06-01T11:24:12.263Z,7.93
2019-06-01T11:26:39.797Z,5.63
2019-06-01T11:29:07.901Z,5.13
2019-06-01T11:31:36.294Z,8.60
2019-06-01T11:34:03.781Z,3.50
2019-06-01T11:36:30.813Z,4.57
2019-06-01T11:38:58.566Z,6.43
2019-06-01T11:41:26.025Z,5.07
2019-06-01T11:43:53.398Z,9.53
2019-06-01T11:46:20.516Z,8.13
2019-06-01T11:48:48.033Z,4.93
2019-06-01T11:51:15.478Z,7.87
2019-06-01T11:53:43.571Z,4.60
2019-06-01T11:56:11.778Z,4.90
2019-06-01T11:58:39.297Z,5.90
2019-06-01T12:01:06.561Z,8.03
2019-06-01T12:03:33.947Z,3.93
2019-06-01T12:06:01.621Z,7.30
2019-06-01T12:08:35.962Z,4.87
2019-06-01T12:11:03.657Z,6.27
2019-06-01T12:13:31.600Z,4.00
2019-06-01T12:15:58.955Z,4.60
2019-06-01T12:18:26.368Z,4.80
2019-06-01T12:20:54.542Z,4.00
2019-06-01T12:23:22.172Z,5.73
2019-06-01T12:25:50.019Z,5.73
2019-06-01T12:28:17.111Z,5.47
2019-06-01T12:30:45.729Z,4.43
2019-06-01T12:33:13.746Z,5.03
2019-06-01T12:35:42.030Z,4.00
2019-06-01T12:38:09.525Z,4.63
2019-06-01T12:40:37.290Z,4.63
2019-06-01T12:43:04.415Z,2.93
2019-06-01T12:45:32.142Z,3.30
2019-06-01T12:48:00.201Z,2.30
2019-06-01T12:50:27.274Z,2.83
2019-06-01T12:52:55.100Z,3.57
2019-06-01T12:55:22.685Z,3.70
2019-06-01T12:57:51.272Z,7.80
2019-06-01T13:00:18.747Z,4.20
2019-06-01T13:02:54.673Z,4.40
2019-06-01T13:05:15.290Z,3.00
2019-06-01T13:07:57.548Z,4.97
2019-06-01T13:10:13.269Z,3.07
2019-06-01T13:12:41.134Z,8.20
2019-06-01T13:15:08.962Z,2.80
2019-06-01T13:17:36.047Z,3.50
2019-06-01T13:20:03.776Z,15.57
2019-06-01T13:22:31.862Z,6.13
2019-06-01T13:24:58.891Z,4.83
2019-06-01T13:27:26.522Z,3.23
2019-06-01T13:29:53.925Z,3.10
2019-06-01T13:32:21.530Z,4.93
2019-06-01T13:34:51.112Z,9.00
2019-06-01T13:37:19.070Z,15.07
2019-06-01T13:39:52.443Z,3.00
2019-06-01T13:42:16.500Z,4.07
2019-06-01T13:44:45.179Z,5.53
2019-06-01T13:47:13.104Z,3.63
2019-06-01T13:49:40.563Z,4.43
2019-06-01T13:52:08.527Z,3.67
2019-06-01T13:54:40.029Z,4.73
2019-06-01T13:57:05.700Z,3.60
2019-06-01T13:59:32.769Z,4.00
2019-06-01T14:02:00.503Z,5.10
2019-06-01T14:04:27.858Z,5.60
2019-06-01T14:06:55.537Z,4.40
2019-06-01T14:09:22.560Z,7.53
2019-06-01T14:11:49.657Z,4.10
2019-06-01T14:14:16.992Z,3.93
2019-06-01T14:16:45.479Z,2.77
2019-06-01T14:19:13.834Z,2.53
2019-06-01T14:21:41.096Z,3.20
2019-06-01T14:24:08.680Z,2.83
2019-06-01T14:26:35.699Z,4.10
2019-06-01T14:29:03.749Z,3.50
2019-06-01T14:31:31.143Z,5.10
2019-06-01T14:33:58.553Z,3.70
2019-06-01T14:36:26.325Z,4.67
2019-06-01T14:38:55.164Z,3.37
2019-06-01T14:41:23.180Z,4.83
2019-06-01T14:43:51.228Z,3.60
2019-06-01T14:46:18.733Z,6.30
2019-06-01T14:48:47.385Z,12.97
2019-06-01T14:51:14.787Z,4.07
2019-06-01T14:53:42.912Z,4.30
2019-06-01T14:56:11.004Z,3.87
2019-06-01T14:58:38.658Z,3.60
2019-06-01T15:01:06.426Z,3.93
2019-06-01T15:03:33.518Z,3.93
2019-06-01T15:06:01.137Z,3.43
2019-06-01T15:08:28.723Z,7.67
2019-06-01T15:10:57.091Z,3.90
2019-06-01T15:13:27.801Z,4.93
2019-06-01T15:15:55.590Z,4.43
2019-06-01T15:18:23.501Z,4.37
2019-06-01T15:20:51.767Z,6.70
2019-06-01T15:23:19.133Z,5.57
2019-06-01T15:25:47.546Z,4.23
2019-06-01T15:28:15.041Z,5.40
2019-06-01T15:30:42.480Z,5.93
2019-06-01T15:33:09.924Z,4.60
2019-06-01T15:35:39.795Z,4.90
2019-06-01T15:38:07.553Z,8.27
2019-06-01T15:40:35.685Z,5.43
2019-06-01T15:43:03.400Z,5.60
2019-06-01T15:45:30.831Z,4.60
2019-06-01T15:47:57.948Z,3.73
2019-06-01T15:50:25.400Z,9.30
2019-06-01T15:52:53.061Z,6.30
2019-06-01T15:55:21.143Z,6.53
2019-06-01T15:57:48.661Z,8.03
2019-06-01T16:00:16.441Z,4.93
2019-06-01T16:02:44.272Z,4.57
2019-06-01T16:05:12.851Z,4.53
2019-06-01T16:07:40.288Z,6.80
2019-06-01T16:10:08.530Z,4.03
2019-06-01T16:12:36.309Z,6.50
2019-06-01T16:15:04.621Z,4.47
2019-06-01T16:17:32.602Z,3.30
2019-06-01T16:20:02.323Z,6.30
2019-06-01T16:22:31.096Z,6.67
2019-06-01T16:24:58.852Z,4.43
2019-06-01T16:27:25.954Z,5.20
2019-06-01T16:29:54.559Z,3.53
2019-06-01T16:32:22.167Z,3.70
2019-06-01T16:34:49.588Z,3.33
2019-06-01T16:37:17.551Z,4.67
2019-06-01T16:39:58.292Z,3.33
2019-06-01T16:42:14.667Z,4.30
2019-06-01T16:44:42.238Z,3.20
2019-06-01T16:47:10.287Z,4.13
2019-06-01T16:49:37.643Z,6.10
2019-06-01T16:52:05.255Z,3.80
2019-06-01T16:54:33.067Z,8.87
2019-06-01T16:57:00.600Z,4.10
2019-06-01T16:59:27.966Z,5.47
2019-06-01T17:01:56.512Z,3.93
2019-06-01T17:04:23.718Z,4.20
2019-06-01T17:06:51.310Z,3.03
2019-06-01T17:09:18.824Z,3.27
2019-06-01T17:11:46.690Z,3.73
2019-06-01T17:14:14.173Z,8.23
2019-06-01T17:16:42.387Z,3.80
2019-06-01T17:19:09.456Z,3.13
2019-06-01T17:21:36.876Z,3.93
2019-06-01T17:24:04.661Z,6.70
2019-06-01T17:26:32.730Z,6.40
2019-06-01T17:29:00.337Z,3.53
2019-06-01T17:31:28.034Z,3.73
2019-06-01T17:33:55.497Z,2.83
2019-06-01T17:36:23.308Z,4.63
2019-06-01T17:38:51.373Z,3.10
2019-06-01T17:41:18.789Z,2.57
2019-06-01T17:43:46.250Z,4.00
2019-06-01T17:46:14.262Z,5.97
2019-06-01T17:48:42.271Z,2.70
2019-06-01T17:51:09.759Z,3.83
2019-06-01T17:53:37.551Z,3.83
2019-06-01T17:56:06.055Z,5.17
2019-06-01T17:58:33.319Z,2.30
2019-06-01T18:01:04.270Z,4.20
2019-06-01T18:03:31.787Z,2.83
2019-06-01T18:05:59.079Z,3.10
2019-06-01T18:08:26.505Z,2.73
2019-06-01T18:10:55.136Z,3.00
2019-06-01T18:13:22.791Z,3.13
2019-06-01T18:15:50.615Z,3.53
2019-06-01T18:18:18.203Z,3.30
2019-06-01T18:20:45.719Z,5.30
2019-06-01T18:23:13.502Z,3.40
2019-06-01T18:25:41.182Z,4.27
2019-06-01T18:28:16.255Z,4.57
2019-06-01T18:30:38.786Z,5.53
2019-06-01T18:33:07.081Z,6.90
2019-06-01T18:35:34.564Z,6.53
2019-06-01T18:38:06.107Z,4.30
2019-06-01T18:40:33.702Z,6.00
2019-06-01T18:43:05.793Z,3.63
2019-06-01T18:45:33.929Z,5.47
2019-06-01T18:48:03.525Z,3.90
2019-06-01T18:50:31.414Z,3.43
2019-06-01T18:52:59.041Z,4.77
2019-06-01T18:55:27.797Z,3.47
2019-06-01T18:57:58.470Z,4.30
2019-06-01T19:00:25.932Z,6.50
2019-06-01T19:02:53.637Z,4.70
2019-06-01T19:05:21.225Z,3.20
2019-06-01T19:07:48.811Z,4.80
2019-06-01T19:10:17.795Z,6.13
2019-06-01T19:12:44.870Z,3.83
2019-06-01T19:15:25.070Z,4.93
2019-06-01T19:17:41.451Z,4.80
2019-06-01T19:20:11.044Z,6.43
2019-06-01T19:22:39.035Z,3.40
2019-06-01T19:25:08.623Z,3.07
2019-06-01T19:27:36.555Z,5.87
2019-06-01T19:30:05.108Z,3.50
2019-06-01T19:32:32.188Z,10.37
2019-06-01T19:35:00.363Z,10.27
2019-06-01T19:37:28.087Z,17.90
2019-06-01T19:39:55.620Z,16.13
2019-06-01T19:42:23.440Z,18.03
2019-06-01T19:44:51.194Z,9.43
2019-06-01T19:47:19.169Z,8.80
2019-06-01T19:49:46.411Z,10.27
2019-06-01T19:52:14.793Z,10.73
2019-06-01T19:54:42.773Z,9.33
2019-06-01T19:57:10.176Z,8.93
2019-06-01T19:59:37.234Z,7.83
2019-06-01T20:02:04.325Z,9.17
2019-06-01T20:04:32.094Z,8.33
2019-06-01T20:06:59.846Z,6.13
2019-06-01T20:09:26.930Z,6.00
2019-06-01T20:12:01.827Z,6.20
2019-06-01T20:14:23.675Z,5.67
2019-06-01T20:16:51.318Z,6.57
2019-06-01T20:19:19.827Z,5.13
2019-06-01T20:21:47.690Z,6.00
2019-06-01T20:24:15.303Z,5.80
2019-06-01T20:26:48.919Z,5.27
2019-06-01T20:29:12.816Z,5.30
2019-06-01T20:31:41.563Z,5.37
2019-06-01T20:34:08.997Z,5.20
2019-06-01T20:36:36.075Z,6.43
2019-06-01T20:39:05.668Z,5.93
2019-06-01T20:41:33.503Z,5.80
2019-06-01T20:44:01.137Z,5.50
2019-06-01T20:46:28.622Z,8.50
2019-06-01T20:48:56.058Z,7.30
2019-06-01T20:51:26.890Z,6.80
2019-06-01T20:53:52.421Z,5.30
2019-06-01T20:56:21.377Z,8.53
2019-06-01T20:58:49.043Z,7.53
2019-06-01T21:01:17.670Z,6.53
2019-06-01T21:03:44.837Z,5.70
2019-06-01T21:06:13.827Z,9.23
2019-06-01T21:08:40.972Z,6.93
2019-06-01T21:11:08.409Z,6.40
2019-06-01T21:13:35.849Z,7.97
2019-06-01T21:16:03.505Z,6.83
2019-06-01T21:18:30.987Z,7.07
2019-06-01T21:20:58.452Z,6.83
2019-06-01T21:23:26.531Z,7.33
2019-06-01T21:25:54.215Z,7.40
2019-06-01T21:28:22.482Z,7.77
2019-06-01T21:30:50.936Z,9.37
2019-06-01T21:33:19.763Z,8.10
2019-06-01T21:35:47.603Z,9.63
2019-06-01T21:38:15.302Z,8.70
2019-06-01T21:40:43.150Z,10.27
2019-06-01T21:43:23.514Z,11.83
2019-06-01T21:45:39.609Z,14.00
2019-06-01T21:48:07.036Z,8.47
2019-06-01T21:50:34.141Z,13.23
2019-06-01T21:53:01.638Z,9.13
2019-06-01T21:55:29.136Z,13.10
2019-06-01T21:57:57.049Z,11.23
2019-06-01T22:00:30.244Z,11.43
2019-06-01T22:02:57.771Z,10.17
2019-06-01T22:05:25.445Z,10.10
2019-06-01T22:07:52.899Z,9.07
2019-06-01T22:10:21.099Z,8.37
2019-06-01T22:12:48.856Z,8.00
2019-06-01T22:15:17.584Z,8.17
2019-06-01T22:17:45.016Z,8.77
2019-06-01T22:20:12.777Z,8.00
2019-06-01T22:22:40.630Z,8.00
2019-06-01T22:25:07.754Z,8.03
2019-06-01T22:27:35.556Z,7.77
2019-06-01T22:30:04.643Z,11.70
2019-06-01T22:32:31.974Z,8.83
2019-06-01T22:34:59.380Z,7.70
2019-06-01T22:37:28.190Z,7.70
2019-06-01T22:39:55.832Z,9.73
2019-06-01T22:42:24.320Z,10.20
2019-06-01T22:44:52.225Z,14.73
2019-06-01T22:47:20.441Z,10.17
2019-06-01T22:49:47.977Z,9.57
2019-06-01T22:52:15.352Z,8.53
2019-06-01T22:54:42.440Z,10.40
2019-06-01T22:57:10.158Z,10.10
2019-06-01T22:59:37.259Z,10.13
2019-06-01T23:02:04.765Z,12.73
2019-06-01T23:04:32.056Z,11.73
2019-06-01T23:06:59.542Z,12.90
2019-06-01T23:09:27.438Z,11.67
2019-06-01T23:11:54.869Z,21.53
2019-06-01T23:14:23.310Z,10.70
2019-06-01T23:16:51.011Z,12.20
2019-06-01T23:19:19.472Z,9.53
2019-06-01T23:21:47.159Z,9.53
2019-06-01T23:24:14.958Z,11.90
2019-06-01T23:26:42.024Z,11.10
2019-06-01T23:29:09.467Z,9.33
2019-06-01T23:31:37.260Z,9.60
2019-06-01T23:34:04.697Z,9.73
2019-06-01T23:36:32.918Z,11.03
2019-06-01T23:39:00.332Z,10.00
2019-06-01T23:41:28.734Z,9.17
2019-06-01T23:44:11.233Z,9.03
2019-06-01T23:46:26.901Z,8.70
2019-06-01T23:48:54.272Z,12.27
2019-06-01T23:51:21.391Z,9.47
2019-06-01T23:53:48.864Z,8.70
2019-06-01T23:56:16.670Z,9.47
2019-06-01T23:58:44.529Z,8.40
